createdAt,value
2022-11-29T00:00:07.323Z,43.10
2022-11-29T00:02:54.830Z,39.47
2022-11-29T00:05:42.937Z,44.40
2022-11-29T00:08:30.002Z,39.93
2022-11-29T00:11:41.823Z,42.23
2022-11-29T00:14:29.291Z,41.63
2022-11-29T00:17:16.703Z,38.27
2022-11-29T00:20:04.157Z,40.93
2022-11-29T00:22:51.145Z,40.03
2022-11-29T00:25:39.156Z,41.73
2022-11-29T00:28:26.551Z,40.50
2022-11-29T00:31:30.282Z,41.53
2022-11-29T00:34:17.229Z,37.53
2022-11-29T00:37:04.609Z,37.90
2022-11-29T00:39:52.542Z,40.93
2022-11-29T00:42:40.409Z,39.67
2022-11-29T00:45:27.339Z,42.50
2022-11-29T00:48:14.364Z,39.43
2022-11-29T00:51:02.232Z,37.47
2022-11-29T00:53:49.241Z,40.93
2022-11-29T00:56:36.154Z,40.13
2022-11-29T00:59:23.576Z,40.97
2022-11-29T01:02:10.557Z,36.10
2022-11-29T01:04:57.570Z,48.30
2022-11-29T01:07:44.654Z,42.13
2022-11-29T01:10:31.656Z,39.43
2022-11-29T01:13:18.589Z,40.33
2022-11-29T01:16:06.318Z,45.60
2022-11-29T01:18:53.433Z,42.90
2022-11-29T01:21:41.214Z,40.73
2022-11-29T01:24:29.806Z,42.93
2022-11-29T01:27:16.862Z,43.50
2022-11-29T01:30:05.920Z,40.33
2022-11-29T01:32:52.869Z,43.73
2022-11-29T01:35:39.855Z,45.13
2022-11-29T01:38:26.905Z,44.70
2022-11-29T01:41:20.777Z,40.47
2022-11-29T01:44:28.442Z,47.70
2022-11-29T01:47:17.275Z,46.13
2022-11-29T01:50:04.843Z,44.70
2022-11-29T01:52:52.175Z,45.93
2022-11-29T01:55:42.897Z,46.53
2022-11-29T01:58:30.261Z,45.20
2022-11-29T02:01:17.338Z,47.67
2022-11-29T02:04:05.760Z,44.23
2022-11-29T02:06:52.837Z,43.07
2022-11-29T02:09:39.780Z,46.13
2022-11-29T02:12:36.493Z,46.00
2022-11-29T02:15:29.222Z,49.47
2022-11-29T02:18:36.188Z,41.53
2022-11-29T02:21:37.880Z,40.73
2022-11-29T02:24:48.644Z,44.77
2022-11-29T02:28:13.437Z,47.03
2022-11-29T02:31:09.324Z,49.67
2022-11-29T02:34:01.942Z,43.53
2022-11-29T02:37:01.344Z,47.57
2022-11-29T02:40:00.907Z,48.33
2022-11-29T02:43:01.684Z,48.20
2022-11-29T02:46:20.920Z,48.03
2022-11-29T02:49:43.717Z,44.17
2022-11-29T02:53:05.599Z,46.07
2022-11-29T02:56:34.459Z,43.60
2022-11-29T03:00:02.612Z,51.37
2022-11-29T03:02:59.726Z,49.70
2022-11-29T03:05:53.535Z,50.43
2022-11-29T03:08:54.591Z,51.77
2022-11-29T03:11:46.474Z,48.83
2022-11-29T03:14:49.181Z,47.80
2022-11-29T03:17:48.496Z,47.80
2022-11-29T03:20:35.883Z,47.37
2022-11-29T03:23:31.860Z,50.07
2022-11-29T03:26:27.355Z,46.80
2022-11-29T03:29:34.320Z,45.83
2022-11-29T03:32:27.839Z,50.03
2022-11-29T03:35:22.919Z,45.03
2022-11-29T03:38:15.805Z,49.80
2022-11-29T03:41:18.757Z,48.10
2022-11-29T03:44:06.327Z,44.70
2022-11-29T03:47:16.193Z,49.13
2022-11-29T03:50:13.547Z,49.93
2022-11-29T03:53:22.564Z,47.60
2022-11-29T03:56:32.001Z,44.90
2022-11-29T03:59:28.106Z,45.80
2022-11-29T04:02:58.638Z,48.40
2022-11-29T04:06:10.995Z,47.63
2022-11-29T04:09:28.214Z,43.93
2022-11-29T04:12:34.437Z,46.17
2022-11-29T04:15:27.724Z,49.17
2022-11-29T04:18:37.185Z,51.77
2022-11-29T04:21:37.770Z,49.83
2022-11-29T04:24:52.778Z,41.53
2022-11-29T04:28:06.295Z,46.60
2022-11-29T04:31:05.774Z,43.67
2022-11-29T04:34:21.109Z,48.10
2022-11-29T04:37:09.459Z,42.87
2022-11-29T04:40:23.460Z,46.57
2022-11-29T04:43:17.374Z,50.97
2022-11-29T04:46:36.708Z,52.83
2022-11-29T04:49:42.336Z,45.33
2022-11-29T04:52:47.505Z,55.10
2022-11-29T04:55:54.493Z,47.93
2022-11-29T04:58:52.125Z,45.67
2022-11-29T05:01:47.402Z,50.43
2022-11-29T05:04:53.723Z,48.77
2022-11-29T05:07:58.219Z,48.77
2022-11-29T05:11:10.294Z,46.23
2022-11-29T05:14:09.793Z,49.43
2022-11-29T05:17:31.588Z,49.23
2022-11-29T05:20:41.951Z,47.63
2022-11-29T05:24:10.989Z,46.60
2022-11-29T05:27:10.712Z,50.03
2022-11-29T05:30:00.848Z,44.20
2022-11-29T05:33:07.345Z,43.33
2022-11-29T05:36:02.895Z,50.27
2022-11-29T05:39:10.544Z,52.40
2022-11-29T05:42:09.181Z,50.10
2022-11-29T05:45:29.296Z,46.40
2022-11-29T05:48:46.161Z,47.27
2022-11-29T05:51:42.930Z,49.37
2022-11-29T05:54:33.237Z,50.33
2022-11-29T05:57:31.295Z,46.17
2022-11-29T06:00:19.996Z,51.37
2022-11-29T06:04:01.858Z,45.00
2022-11-29T06:07:24.589Z,47.17
2022-11-29T06:10:19.699Z,53.03
2022-11-29T06:13:22.031Z,54.20
2022-11-29T06:16:14.314Z,51.83
2022-11-29T06:19:05.011Z,52.40
2022-11-29T06:22:11.951Z,47.27
2022-11-29T06:25:03.628Z,51.07
2022-11-29T06:28:15.639Z,48.03
2022-11-29T06:31:22.813Z,52.17
2022-11-29T06:34:11.991Z,51.20
2022-11-29T06:37:00.976Z,53.00
2022-11-29T06:39:50.049Z,47.13
2022-11-29T06:42:37.975Z,51.07
2022-11-29T06:45:25.886Z,53.60
2022-11-29T06:48:17.414Z,56.60
2022-11-29T06:51:19.849Z,53.63
2022-11-29T06:54:34.255Z,51.67
2022-11-29T06:57:29.654Z,53.70
2022-11-29T07:00:21.004Z,50.70
2022-11-29T07:03:31.751Z,62.20
2022-11-29T07:06:27.319Z,56.45
2022-11-29T07:09:18.275Z,53.00
2022-11-29T07:12:05.634Z,47.80
2022-11-29T07:14:53.560Z,52.47
2022-11-29T07:18:00.586Z,46.87
2022-11-29T07:21:11.840Z,50.27
2022-11-29T07:24:34.121Z,50.23
2022-11-29T07:27:34.425Z,49.43
2022-11-29T07:31:00.285Z,52.80
2022-11-29T07:34:05.195Z,45.60
2022-11-29T07:37:13.536Z,49.63
2022-11-29T07:40:19.419Z,43.47
2022-11-29T07:43:22.441Z,44.97
2022-11-29T07:46:09.361Z,47.40
2022-11-29T07:48:56.276Z,46.67
2022-11-29T07:51:43.480Z,49.50
2022-11-29T07:54:30.806Z,48.67
2022-11-29T07:57:17.780Z,42.37
2022-11-29T08:00:05.493Z,45.07
2022-11-29T08:02:52.455Z,47.33
2022-11-29T08:05:40.407Z,51.40
2022-11-29T08:08:27.507Z,53.13
2022-11-29T08:11:15.870Z,50.07
2022-11-29T08:14:04.922Z,48.10
2022-11-29T08:16:51.896Z,50.53
2022-11-29T08:19:38.859Z,46.83
2022-11-29T08:22:25.814Z,53.23
2022-11-29T08:25:12.789Z,48.73
2022-11-29T08:28:01.794Z,47.03
2022-11-29T08:30:48.740Z,48.47
2022-11-29T08:33:38.342Z,50.83
2022-11-29T08:36:27.555Z,50.37
2022-11-29T08:39:16.008Z,51.07
2022-11-29T08:42:04.272Z,46.20
2022-11-29T08:44:53.332Z,53.00
2022-11-29T08:47:42.227Z,47.40
2022-11-29T08:50:29.195Z,46.67
2022-11-29T08:53:36.185Z,50.27
2022-11-29T08:57:10.206Z,51.33
2022-11-29T08:59:30.977Z,50.20
2022-11-29T09:02:19.565Z,52.67
2022-11-29T09:05:08.245Z,54.77
2022-11-29T09:07:59.040Z,49.20
2022-11-29T09:10:47.838Z,46.53
2022-11-29T09:13:35.920Z,55.30
2022-11-29T09:16:25.350Z,52.53
2022-11-29T09:19:14.797Z,50.03
2022-11-29T09:22:03.867Z,52.83
2022-11-29T09:24:51.325Z,53.17
2022-11-29T09:27:38.754Z,49.90
2022-11-29T09:30:26.445Z,52.43
2022-11-29T09:33:13.847Z,54.93
2022-11-29T09:36:01.820Z,51.47
2022-11-29T09:38:49.206Z,51.97
2022-11-29T09:41:49.122Z,50.83
2022-11-29T09:44:46.713Z,58.73
2022-11-29T09:47:48.157Z,56.77
2022-11-29T09:50:37.665Z,56.10
2022-11-29T09:53:52.377Z,52.57
2022-11-29T09:56:43.418Z,51.93
2022-11-29T09:59:36.747Z,56.30
2022-11-29T10:02:29.172Z,62.75
2022-11-29T10:05:28.732Z,54.50
2022-11-29T10:08:16.107Z,53.83
2022-11-29T10:11:12.750Z,51.60
2022-11-29T10:14:14.079Z,53.43
2022-11-29T10:17:05.476Z,50.47
2022-11-29T10:19:55.523Z,53.37
2022-11-29T10:22:49.528Z,51.50
2022-11-29T10:25:42.775Z,48.27
2022-11-29T10:28:31.816Z,51.07
2022-11-29T10:31:25.228Z,50.50
2022-11-29T10:34:14.108Z,53.23
2022-11-29T10:37:02.606Z,47.50
2022-11-29T10:39:53.189Z,51.33
2022-11-29T10:42:49.579Z,57.77
2022-11-29T10:45:50.901Z,52.43
2022-11-29T10:48:39.444Z,60.03
2022-11-29T10:51:27.210Z,59.57
2022-11-29T10:54:24.672Z,54.63
2022-11-29T10:57:17.014Z,56.10
2022-11-29T11:00:09.737Z,54.97
2022-11-29T11:02:58.137Z,56.97
2022-11-29T11:05:56.911Z,60.10
2022-11-29T11:08:47.398Z,54.07
2022-11-29T11:11:34.868Z,55.03
2022-11-29T11:14:27.372Z,58.70
2022-11-29T11:17:21.043Z,53.83
2022-11-29T11:20:14.853Z,58.83
2022-11-29T11:23:03.580Z,49.20
2022-11-29T11:25:56.247Z,60.43
2022-11-29T11:29:01.199Z,55.77
2022-11-29T11:31:53.013Z,53.90
2022-11-29T11:34:50.806Z,57.47
2022-11-29T11:37:38.302Z,58.67
2022-11-29T11:40:28.834Z,58.97
2022-11-29T11:43:22.289Z,57.73
2022-11-29T11:46:10.886Z,50.30
2022-11-29T11:49:01.264Z,57.33
2022-11-29T11:51:48.643Z,55.57
2022-11-29T11:54:36.170Z,57.57
2022-11-29T11:57:24.497Z,54.60
2022-11-29T12:01:01.950Z,56.63
2022-11-29T12:03:48.403Z,49.40
2022-11-29T12:06:39.004Z,54.93
2022-11-29T12:09:44.764Z,57.53
2022-11-29T12:12:39.770Z,57.77
2022-11-29T12:15:32.089Z,62.87
2022-11-29T12:18:30.143Z,71.67
2022-11-29T12:21:20.990Z,55.27
2022-11-29T12:24:22.440Z,54.20
2022-11-29T12:27:11.781Z,57.60
2022-11-29T12:29:59.226Z,56.97
2022-11-29T12:32:52.672Z,54.60
2022-11-29T12:35:48.841Z,54.53
2022-11-29T12:38:49.018Z,50.67
2022-11-29T12:41:36.333Z,56.50
2022-11-29T12:44:40.514Z,53.13
2022-11-29T12:47:35.761Z,57.60
2022-11-29T12:50:29.970Z,51.33
2022-11-29T12:53:29.427Z,51.73
2022-11-29T12:56:22.782Z,52.53
2022-11-29T12:59:21.071Z,55.07
2022-11-29T13:02:24.866Z,55.60
2022-11-29T13:05:12.206Z,52.13
2022-11-29T13:08:19.464Z,54.30
2022-11-29T13:11:25.318Z,57.93
2022-11-29T13:14:46.666Z,56.83
2022-11-29T13:17:42.994Z,54.17
2022-11-29T13:20:46.104Z,53.00
2022-11-29T13:23:45.450Z,57.80
2022-11-29T13:26:41.612Z,56.13
2022-11-29T13:29:29.014Z,55.47
2022-11-29T13:32:28.655Z,58.37
2022-11-29T13:35:16.766Z,62.77
2022-11-29T13:38:10.602Z,52.90
2022-11-29T13:41:21.441Z,69.00
2022-11-29T13:44:20.268Z,67.03
2022-11-29T13:47:08.952Z,65.17
2022-11-29T13:50:03.617Z,67.00
2022-11-29T13:52:50.996Z,63.47
2022-11-29T13:55:44.594Z,67.27
2022-11-29T13:58:36.618Z,67.70
2022-11-29T14:01:26.659Z,62.67
2022-11-29T14:04:23.408Z,72.13
2022-11-29T14:07:13.049Z,75.53
2022-11-29T14:10:07.962Z,63.63
2022-11-29T14:12:56.805Z,60.70
2022-11-29T14:15:44.390Z,69.27
2022-11-29T14:18:37.900Z,68.97
2022-11-29T14:21:25.272Z,67.17
2022-11-29T14:24:32.617Z,71.67
2022-11-29T14:27:19.976Z,65.73
2022-11-29T14:30:33.797Z,70.07
2022-11-29T14:33:30.009Z,97.70
2022-11-29T14:36:35.969Z,75.70
2022-11-29T14:39:42.304Z,63.73
2022-11-29T14:42:30.576Z,59.17
2022-11-29T14:45:28.571Z,67.95
2022-11-29T14:48:25.009Z,58.90
2022-11-29T14:51:14.010Z,62.95
2022-11-29T14:54:21.643Z,59.07
2022-11-29T14:57:27.869Z,57.07
2022-11-29T15:00:16.257Z,57.27
2022-11-29T15:03:12.812Z,55.90
2022-11-29T15:06:09.651Z,58.87
2022-11-29T15:08:57.022Z,61.67
2022-11-29T15:11:50.582Z,62.37
2022-11-29T15:14:48.448Z,65.67
2022-11-29T15:17:35.888Z,65.67
2022-11-29T15:20:29.207Z,62.33
2022-11-29T15:23:18.357Z,61.10
2022-11-29T15:26:05.821Z,64.77
2022-11-29T15:28:53.217Z,66.27
2022-11-29T15:31:41.965Z,68.20
2022-11-29T15:34:34.462Z,69.40
2022-11-29T15:37:24.116Z,65.63
2022-11-29T15:40:15.741Z,63.10
2022-11-29T15:43:12.695Z,70.80
2022-11-29T15:46:02.748Z,65.30
2022-11-29T15:48:50.180Z,72.03
2022-11-29T15:51:38.974Z,70.90
2022-11-29T15:54:26.420Z,72.87
2022-11-29T15:57:19.057Z,83.13
2022-11-29T16:00:07.907Z,72.10
2022-11-29T16:02:59.930Z,65.87
2022-11-29T16:05:50.956Z,70.73
2022-11-29T16:08:42.050Z,71.13
2022-11-29T16:11:31.308Z,70.27
2022-11-29T16:14:22.469Z,70.97
2022-11-29T16:17:09.836Z,68.30
2022-11-29T16:20:18.944Z,70.27
2022-11-29T16:23:13.614Z,65.07
2022-11-29T16:26:02.326Z,66.40
2022-11-29T16:28:51.257Z,72.87
2022-11-29T16:31:39.124Z,75.93
2022-11-29T16:34:27.645Z,75.20
2022-11-29T16:37:18.295Z,70.13
2022-11-29T16:40:06.078Z,71.97
2022-11-29T16:43:06.275Z,76.73
2022-11-29T16:46:13.706Z,77.03
2022-11-29T16:49:02.676Z,71.97
2022-11-29T16:51:50.909Z,71.20
2022-11-29T16:54:38.284Z,79.23
2022-11-29T16:57:26.205Z,72.07
2022-11-29T17:00:30.549Z,76.43
2022-11-29T17:03:19.742Z,66.97
2022-11-29T17:06:07.246Z,78.57
2022-11-29T17:08:56.109Z,73.27
2022-11-29T17:11:44.192Z,74.43
2022-11-29T17:14:33.331Z,74.60
2022-11-29T17:17:20.970Z,72.20
2022-11-29T17:20:08.871Z,70.33
2022-11-29T17:22:56.371Z,78.13
2022-11-29T17:25:43.892Z,68.87
2022-11-29T17:28:31.266Z,77.17
2022-11-29T17:31:20.492Z,79.73
2022-11-29T17:34:08.018Z,73.03
2022-11-29T17:36:55.386Z,65.57
2022-11-29T17:39:44.789Z,71.07
2022-11-29T17:42:32.302Z,74.20
2022-11-29T17:45:19.754Z,68.63
2022-11-29T17:48:07.275Z,73.57
2022-11-29T17:50:59.463Z,77.63
2022-11-29T17:53:46.860Z,74.30
2022-11-29T17:56:34.569Z,69.30
2022-11-29T17:59:21.953Z,75.23
2022-11-29T18:02:11.064Z,72.27
2022-11-29T18:04:59.759Z,62.07
2022-11-29T18:08:01.136Z,73.23
2022-11-29T18:10:49.241Z,74.13
2022-11-29T18:13:36.829Z,82.13
2022-11-29T18:16:26.587Z,66.73
2022-11-29T18:19:15.315Z,77.67
2022-11-29T18:22:03.382Z,77.13
2022-11-29T18:24:51.733Z,75.53
2022-11-29T18:27:41.123Z,74.83
2022-11-29T18:30:28.808Z,74.43
2022-11-29T18:33:16.331Z,72.50
2022-11-29T18:36:06.868Z,76.53
2022-11-29T18:38:58.487Z,71.43
2022-11-29T18:41:47.456Z,72.87
2022-11-29T18:44:35.954Z,72.20
2022-11-29T18:47:23.729Z,66.00
2022-11-29T18:50:12.005Z,68.90
2022-11-29T18:53:00.282Z,76.67
2022-11-29T18:55:47.727Z,74.37
2022-11-29T18:58:35.172Z,74.07
2022-11-29T19:01:23.271Z,67.50
2022-11-29T19:04:12.447Z,67.33
2022-11-29T19:07:00.192Z,70.70
2022-11-29T19:09:48.192Z,66.83
2022-11-29T19:12:35.729Z,66.87
2022-11-29T19:15:23.145Z,64.37
2022-11-29T19:18:10.506Z,67.20
2022-11-29T19:21:08.046Z,70.20
2022-11-29T19:23:59.482Z,69.60
2022-11-29T19:26:48.091Z,66.07
2022-11-29T19:29:39.674Z,68.03
2022-11-29T19:32:27.554Z,70.90
2022-11-29T19:35:14.967Z,70.30
2022-11-29T19:38:02.335Z,63.43
2022-11-29T19:40:49.907Z,75.90
2022-11-29T19:43:37.231Z,67.50
2022-11-29T19:46:26.851Z,73.67
2022-11-29T19:49:15.329Z,70.90
2022-11-29T19:52:02.982Z,66.33
2022-11-29T19:54:50.327Z,62.63
2022-11-29T19:57:38.314Z,66.13
2022-11-29T20:00:26.548Z,66.83
2022-11-29T20:03:14.340Z,66.27
2022-11-29T20:06:03.179Z,65.07
2022-11-29T20:08:51.044Z,69.30
2022-11-29T20:11:39.704Z,72.63
2022-11-29T20:14:27.956Z,75.10
2022-11-29T20:17:15.323Z,78.97
2022-11-29T20:20:02.825Z,76.33
2022-11-29T20:22:53.209Z,75.03
2022-11-29T20:25:40.583Z,72.90
2022-11-29T20:28:28.266Z,71.73
2022-11-29T20:31:17.260Z,71.93
2022-11-29T20:34:04.905Z,79.20
2022-11-29T20:36:58.323Z,74.67
2022-11-29T20:39:49.069Z,74.20
2022-11-29T20:42:47.021Z,78.20
2022-11-29T20:45:34.667Z,73.60
2022-11-29T20:48:23.181Z,72.07
2022-11-29T20:51:11.255Z,72.33
2022-11-29T20:53:58.907Z,74.00
2022-11-29T20:56:46.238Z,79.73
2022-11-29T20:59:33.563Z,73.63
2022-11-29T21:02:21.340Z,79.57
2022-11-29T21:05:09.542Z,79.07
2022-11-29T21:07:57.242Z,77.30
2022-11-29T21:10:45.346Z,80.97
2022-11-29T21:13:32.912Z,69.43
2022-11-29T21:16:27.135Z,77.17
2022-11-29T21:19:19.891Z,67.80
2022-11-29T21:22:16.963Z,72.63
2022-11-29T21:25:05.142Z,76.70
2022-11-29T21:27:53.878Z,76.97
2022-11-29T21:30:41.494Z,73.93
2022-11-29T21:33:29.203Z,76.73
2022-11-29T21:36:16.611Z,77.03
2022-11-29T21:39:05.895Z,77.00
2022-11-29T21:41:53.352Z,76.17
2022-11-29T21:44:40.742Z,87.50
2022-11-29T21:47:28.047Z,81.53
2022-11-29T21:50:15.448Z,110.30
2022-11-29T21:53:02.805Z,125.03
2022-11-29T21:55:55.723Z,114.17
2022-11-29T21:58:43.253Z,106.83
2022-11-29T22:01:30.741Z,111.07
2022-11-29T22:04:18.439Z,94.47
2022-11-29T22:07:05.856Z,93.60
2022-11-29T22:09:53.227Z,104.17
2022-11-29T22:12:51.260Z,95.40
2022-11-29T22:15:39.717Z,91.23
2022-11-29T22:18:28.257Z,92.27
2022-11-29T22:21:15.876Z,87.20
2022-11-29T22:24:03.760Z,83.03
2022-11-29T22:26:52.700Z,88.13
2022-11-29T22:29:42.302Z,94.10
2022-11-29T22:32:29.834Z,90.63
2022-11-29T22:35:18.272Z,92.57
2022-11-29T22:38:05.617Z,90.90
2022-11-29T22:40:52.989Z,90.43
2022-11-29T22:43:40.978Z,91.43
2022-11-29T22:46:29.053Z,90.83
2022-11-29T22:49:16.892Z,94.70
2022-11-29T22:52:04.385Z,90.13
2022-11-29T22:54:51.752Z,93.73
2022-11-29T22:57:39.380Z,87.87
2022-11-29T23:00:27.618Z,92.53
2022-11-29T23:03:15.024Z,92.63
2022-11-29T23:06:03.193Z,86.00
2022-11-29T23:08:51.641Z,95.13
2022-11-29T23:11:39.561Z,97.60
2022-11-29T23:14:27.847Z,99.70
2022-11-29T23:17:15.276Z,96.50
2022-11-29T23:20:02.647Z,100.20
2022-11-29T23:22:50.243Z,102.43
2022-11-29T23:25:37.979Z,114.67
2022-11-29T23:28:25.547Z,101.83
2022-11-29T23:31:13.291Z,100.00
2022-11-29T23:34:01.737Z,97.43
2022-11-29T23:36:52.949Z,106.07
2022-11-29T23:39:40.675Z,107.97
2022-11-29T23:42:28.047Z,107.80
2022-11-29T23:45:15.491Z,103.33
2022-11-29T23:48:02.871Z,104.90
2022-11-29T23:50:50.321Z,97.67
2022-11-29T23:53:37.929Z,107.70
2022-11-29T23:56:25.639Z,104.93
2022-11-29T23:59:13.134Z,105.57
